createdAt,value
2022-12-08T00:01:34.158Z,34.98
2022-12-08T00:04:04.163Z,35.68
2022-12-08T00:06:58.025Z,28.02
2022-12-08T00:09:38.596Z,25.55
2022-12-08T00:12:13.012Z,28.07
2022-12-08T00:14:45.945Z,26.52
2022-12-08T00:17:15.992Z,20.17
2022-12-08T00:19:44.327Z,20.77
2022-12-08T00:22:14.671Z,22.13
2022-12-08T00:24:45.093Z,20.35
2022-12-08T00:27:17.512Z,19.00
2022-12-08T00:29:45.297Z,20.57
2022-12-08T00:32:14.580Z,20.25
2022-12-08T00:34:42.324Z,17.92
2022-12-08T00:37:10.231Z,21.33
2022-12-08T00:39:37.795Z,20.60
2022-12-08T00:42:14.089Z,18.80
2022-12-08T00:44:44.357Z,19.85
2022-12-08T00:47:13.549Z,39.83
2022-12-08T00:49:41.822Z,59.77
2022-12-08T00:52:09.667Z,101.75
2022-12-08T00:54:37.339Z,77.95
2022-12-08T00:57:05.302Z,32.15
2022-12-08T00:59:33.035Z,23.80
2022-12-08T01:02:00.770Z,34.35
2022-12-08T01:04:28.405Z,38.25
2022-12-08T01:06:55.982Z,30.45
2022-12-08T01:09:23.375Z,33.95
2022-12-08T01:11:50.965Z,28.80
2022-12-08T01:14:18.308Z,28.38
2022-12-08T01:16:46.090Z,24.47
2022-12-08T01:19:16.625Z,35.30
2022-12-08T01:21:45.343Z,37.70
2022-12-08T01:24:18.123Z,41.18
2022-12-08T01:26:46.517Z,28.02
2022-12-08T01:29:14.648Z,19.80
2022-12-08T01:31:42.404Z,18.20
2022-12-08T01:34:11.622Z,15.60
2022-12-08T01:36:39.799Z,15.05
2022-12-08T01:39:11.961Z,17.02
2022-12-08T01:41:39.464Z,15.40
2022-12-08T01:44:12.323Z,14.18
2022-12-08T01:46:43.059Z,14.03
2022-12-08T01:49:30.666Z,15.60
2022-12-08T01:52:29.204Z,22.90
2022-12-08T01:55:02.328Z,26.30
2022-12-08T01:57:37.938Z,23.32
2022-12-08T02:00:10.303Z,21.60
2022-12-08T02:03:04.306Z,17.55
2022-12-08T02:08:06.222Z,21.80
2022-12-08T02:10:38.050Z,18.98
2022-12-08T02:13:09.223Z,21.77
2022-12-08T02:15:56.591Z,24.45
2022-12-08T02:18:38.475Z,25.23
2022-12-08T02:21:40.321Z,25.92
2022-12-08T02:24:38.001Z,25.00
2022-12-08T02:27:34.654Z,31.05
2022-12-08T02:30:25.832Z,37.60
2022-12-08T02:33:21.674Z,26.97
2022-12-08T02:36:16.205Z,23.20
2022-12-08T02:39:13.347Z,19.87
2022-12-08T02:42:00.889Z,18.55
2022-12-08T02:44:36.385Z,21.35
2022-12-08T02:47:12.346Z,17.65
2022-12-08T02:49:40.436Z,19.55
2022-12-08T02:52:22.591Z,18.25
2022-12-08T02:55:03.595Z,17.80
2022-12-08T02:58:05.605Z,17.27
2022-12-08T03:00:44.495Z,24.23
2022-12-08T03:03:26.347Z,17.32
2022-12-08T03:06:23.336Z,18.45
2022-12-08T03:09:05.734Z,18.90
2022-12-08T03:11:41.760Z,18.42
2022-12-08T03:14:13.222Z,19.32
2022-12-08T03:16:45.327Z,16.12
2022-12-08T03:19:32.924Z,25.35
2022-12-08T03:22:03.194Z,23.70
2022-12-08T03:24:36.085Z,18.27
2022-12-08T03:27:17.800Z,18.35
2022-12-08T03:29:53.331Z,18.65
2022-12-08T03:32:53.521Z,16.80
2022-12-08T03:35:25.980Z,17.20
2022-12-08T03:38:10.596Z,22.30
2022-12-08T03:40:39.281Z,17.85
2022-12-08T03:43:07.139Z,12.85
2022-12-08T03:45:35.117Z,14.03
2022-12-08T03:48:02.944Z,18.23
2022-12-08T03:50:30.715Z,18.32
2022-12-08T03:52:58.162Z,19.42
2022-12-08T03:55:25.511Z,23.52
2022-12-08T03:57:53.132Z,26.10
2022-12-08T04:00:21.445Z,21.62
2022-12-08T04:02:49.006Z,37.75
2022-12-08T04:05:16.892Z,25.40
2022-12-08T04:07:44.518Z,17.35
2022-12-08T04:10:12.385Z,17.17
2022-12-08T04:12:39.989Z,19.17
2022-12-08T04:15:09.684Z,16.35
2022-12-08T04:17:37.513Z,16.27
2022-12-08T04:20:07.207Z,16.15
2022-12-08T04:22:34.921Z,18.23
2022-12-08T04:25:02.712Z,20.23
2022-12-08T04:27:30.598Z,17.65
2022-12-08T04:29:58.349Z,19.00
2022-12-08T04:32:25.857Z,20.32
2022-12-08T04:34:53.728Z,16.12
2022-12-08T04:37:21.370Z,15.43
2022-12-08T04:39:49.232Z,15.10
2022-12-08T04:42:16.866Z,16.05
2022-12-08T04:44:44.374Z,19.32
2022-12-08T04:47:11.901Z,22.48
2022-12-08T04:49:39.904Z,23.32
2022-12-08T04:52:07.132Z,18.25
2022-12-08T04:54:35.073Z,20.40
2022-12-08T04:57:02.563Z,20.10
2022-12-08T04:59:30.302Z,16.30
2022-12-08T05:01:58.132Z,16.57
2022-12-08T05:04:25.882Z,16.23
2022-12-08T05:06:53.419Z,13.70
2022-12-08T05:09:21.816Z,18.60
2022-12-08T05:11:49.474Z,15.43
2022-12-08T05:14:19.061Z,19.75
2022-12-08T05:16:47.551Z,22.07
2022-12-08T05:19:16.306Z,25.27
2022-12-08T05:21:45.295Z,23.15
2022-12-08T05:24:13.208Z,29.52
2022-12-08T05:26:40.721Z,34.27
2022-12-08T05:29:08.156Z,44.40
2022-12-08T05:31:35.896Z,47.80
2022-12-08T05:34:03.845Z,43.87
2022-12-08T05:36:31.445Z,42.00
2022-12-08T05:38:59.376Z,43.40
2022-12-08T05:41:26.939Z,37.83
2022-12-08T05:43:54.511Z,36.33
2022-12-08T05:46:22.303Z,44.80
2022-12-08T05:48:49.989Z,56.92
2022-12-08T05:51:23.261Z,62.00
2022-12-08T05:53:52.274Z,45.23
2022-12-08T05:56:21.410Z,32.67
2022-12-08T05:58:50.165Z,34.85
2022-12-08T06:01:27.744Z,36.03
2022-12-08T06:03:57.508Z,48.28
2022-12-08T06:06:25.409Z,52.05
2022-12-08T06:08:52.950Z,61.25
2022-12-08T06:11:25.762Z,56.50
2022-12-08T06:13:55.391Z,41.15
2022-12-08T06:16:25.537Z,40.58
2022-12-08T06:18:53.484Z,35.52
2022-12-08T06:21:21.523Z,41.42
2022-12-08T06:23:52.320Z,41.23
2022-12-08T06:26:21.034Z,34.83
2022-12-08T06:28:49.913Z,31.25
2022-12-08T06:31:22.476Z,30.27
2022-12-08T06:33:50.665Z,27.73
2022-12-08T06:36:21.543Z,27.42
2022-12-08T06:38:50.034Z,29.70
2022-12-08T06:41:18.011Z,31.33
2022-12-08T06:43:46.031Z,32.30
2022-12-08T06:46:18.833Z,34.80
2022-12-08T06:48:47.622Z,29.32
2022-12-08T06:51:19.140Z,28.17
2022-12-08T06:53:47.090Z,27.32
2022-12-08T06:56:18.161Z,32.90
2022-12-08T06:58:52.065Z,25.50
2022-12-08T07:01:15.807Z,21.10
2022-12-08T07:03:43.265Z,25.32
2022-12-08T07:06:18.251Z,24.82
2022-12-08T07:08:46.024Z,24.82
2022-12-08T07:11:19.619Z,31.20
2022-12-08T07:13:43.613Z,42.03
2022-12-08T07:16:12.858Z,51.83
2022-12-08T07:18:42.387Z,56.28
2022-12-08T07:21:12.786Z,41.95
2022-12-08T07:23:41.088Z,39.48
2022-12-08T07:26:12.115Z,37.15
2022-12-08T07:28:42.064Z,42.43
2022-12-08T07:31:22.755Z,40.50
2022-12-08T07:33:51.131Z,41.30
2022-12-08T07:36:19.036Z,44.23
2022-12-08T07:38:46.858Z,32.38
2022-12-08T07:41:17.955Z,35.90
2022-12-08T07:43:45.956Z,41.83
2022-12-08T07:46:16.018Z,47.65
2022-12-08T07:48:44.712Z,50.73
2022-12-08T07:51:15.367Z,44.73
2022-12-08T07:53:49.897Z,32.48
2022-12-08T07:56:14.872Z,27.82
2022-12-08T07:58:44.429Z,27.55
2022-12-08T08:01:22.693Z,24.27
2022-12-08T08:03:50.575Z,26.17
2022-12-08T08:06:18.167Z,31.20
2022-12-08T08:08:45.923Z,30.20
2022-12-08T08:11:20.778Z,23.57
2022-12-08T08:13:43.164Z,21.87
2022-12-08T08:16:13.083Z,47.38
2022-12-08T08:18:41.099Z,41.55
2022-12-08T08:21:43.188Z,30.52
2022-12-08T08:23:38.539Z,21.10
2022-12-08T08:26:06.234Z,20.65
2022-12-08T08:28:34.949Z,21.17
2022-12-08T08:31:02.694Z,25.55
2022-12-08T08:33:30.355Z,24.47
2022-12-08T08:35:58.579Z,40.28
2022-12-08T08:38:26.162Z,33.13
2022-12-08T08:40:53.843Z,31.75
2022-12-08T08:43:36.022Z,34.43
2022-12-08T08:46:00.816Z,27.05
2022-12-08T08:48:30.397Z,22.60
2022-12-08T08:50:58.531Z,31.95
2022-12-08T08:53:26.201Z,44.38
2022-12-08T08:55:54.024Z,39.73
2022-12-08T08:58:21.481Z,35.78
2022-12-08T09:00:48.774Z,37.98
2022-12-08T09:03:16.765Z,30.52
2022-12-08T09:05:44.632Z,33.65
2022-12-08T09:08:12.321Z,27.82
2022-12-08T09:10:40.319Z,29.40
2022-12-08T09:13:08.583Z,32.53
2022-12-08T09:15:36.854Z,29.65
2022-12-08T09:18:06.307Z,34.20
2022-12-08T09:20:35.317Z,31.27
2022-12-08T09:23:02.772Z,31.07
2022-12-08T09:25:30.549Z,28.15
2022-12-08T09:27:58.024Z,31.15
2022-12-08T09:30:25.724Z,30.68
2022-12-08T09:32:53.461Z,32.30
2022-12-08T09:35:21.133Z,35.75
2022-12-08T09:37:48.603Z,34.13
2022-12-08T09:40:20.313Z,35.80
2022-12-08T09:42:59.233Z,40.17
2022-12-08T09:45:30.684Z,40.73
2022-12-08T09:48:15.277Z,38.63
2022-12-08T09:50:53.589Z,36.45
2022-12-08T09:53:37.807Z,38.80
2022-12-08T09:56:17.221Z,35.55
2022-12-08T09:59:10.248Z,37.25
2022-12-08T10:01:41.453Z,38.75
2022-12-08T10:04:23.795Z,39.13
2022-12-08T10:07:07.059Z,36.65
2022-12-08T10:10:03.591Z,53.20
2022-12-08T10:12:39.691Z,47.10
2022-12-08T10:15:46.268Z,41.58
2022-12-08T10:18:21.883Z,33.25
2022-12-08T10:20:51.443Z,28.47
2022-12-08T10:23:30.357Z,29.55
2022-12-08T10:26:05.663Z,27.48
2022-12-08T10:28:34.441Z,29.50
2022-12-08T10:31:02.221Z,28.47
2022-12-08T10:33:32.320Z,34.60
2022-12-08T10:36:04.304Z,30.77
2022-12-08T10:38:35.620Z,27.73
2022-12-08T10:41:13.972Z,29.42
2022-12-08T10:44:00.668Z,34.40
2022-12-08T10:46:29.720Z,36.73
2022-12-08T10:49:09.224Z,27.48
2022-12-08T10:51:43.135Z,23.85
2022-12-08T10:54:33.430Z,26.30
2022-12-08T10:57:01.031Z,22.75
2022-12-08T10:59:29.058Z,18.65
2022-12-08T11:01:57.175Z,22.98
2022-12-08T11:04:37.694Z,20.00
2022-12-08T11:07:08.788Z,26.65
2022-12-08T11:09:50.251Z,23.87
2022-12-08T11:12:22.637Z,28.12
2022-12-08T11:14:58.525Z,32.25
2022-12-08T11:17:29.804Z,41.90
2022-12-08T11:20:12.004Z,37.80
2022-12-08T11:22:48.347Z,37.70
2022-12-08T11:25:26.621Z,37.13
2022-12-08T11:28:00.475Z,35.58
2022-12-08T11:30:33.830Z,35.75
2022-12-08T11:33:07.120Z,31.55
2022-12-08T11:35:41.665Z,38.23
2022-12-08T11:38:23.674Z,24.52
2022-12-08T11:40:46.091Z,22.20
2022-12-08T11:43:25.179Z,27.75
2022-12-08T11:46:20.836Z,15.93
2022-12-08T11:49:10.535Z,15.40
2022-12-08T11:52:01.863Z,15.95
2022-12-08T11:54:49.601Z,18.92
2022-12-08T11:57:18.974Z,22.15
2022-12-08T11:59:51.859Z,18.42
2022-12-08T12:02:27.241Z,29.67
2022-12-08T12:05:09.143Z,20.88
2022-12-08T12:08:05.213Z,19.85
2022-12-08T12:10:50.298Z,20.65
2022-12-08T12:13:38.399Z,24.20
2022-12-08T12:16:34.479Z,24.32
2022-12-08T12:19:05.509Z,21.17
2022-12-08T12:21:40.605Z,23.00
2022-12-08T12:24:25.513Z,20.30
2022-12-08T12:27:02.967Z,18.27
2022-12-08T12:29:34.858Z,20.35
2022-12-08T12:32:06.146Z,20.43
2022-12-08T12:34:38.447Z,20.77
2022-12-08T12:37:10.550Z,23.35
2022-12-08T12:39:59.082Z,26.23
2022-12-08T12:42:41.464Z,22.67
2022-12-08T12:45:20.459Z,19.20
2022-12-08T12:48:02.361Z,21.35
2022-12-08T12:50:46.109Z,35.30
2022-12-08T12:56:03.353Z,44.73
2022-12-08T12:58:36.024Z,32.83
2022-12-08T13:01:24.473Z,25.65
2022-12-08T13:04:08.093Z,19.75
2022-12-08T13:06:41.084Z,17.10
2022-12-08T13:09:22.595Z,17.07
2022-12-08T13:11:55.000Z,19.05
2022-12-08T13:14:33.743Z,21.37
2022-12-08T13:17:05.189Z,21.23
2022-12-08T13:19:33.964Z,22.10
2022-12-08T13:22:01.553Z,21.05
2022-12-08T13:24:33.816Z,18.62
2022-12-08T13:27:10.412Z,21.07
2022-12-08T13:29:39.112Z,20.90
2022-12-08T13:32:15.006Z,15.45
2022-12-08T13:34:47.922Z,13.35
2022-12-08T13:37:53.849Z,15.25
2022-12-08T13:40:20.566Z,16.97
2022-12-08T13:43:15.061Z,17.90
2022-12-08T13:49:09.971Z,33.48
2022-12-08T13:57:02.670Z,31.12
2022-12-08T13:59:32.169Z,26.12
2022-12-08T14:02:05.234Z,33.70
2022-12-08T14:04:54.621Z,28.23
2022-12-08T14:07:03.670Z,30.50
2022-12-08T14:09:36.958Z,31.20
2022-12-08T14:12:18.968Z,31.80
2022-12-08T14:15:02.976Z,31.02
2022-12-08T14:17:22.874Z,34.25
2022-12-08T14:20:01.583Z,25.00
2022-12-08T14:22:36.798Z,26.95
2022-12-08T14:25:09.269Z,32.13
2022-12-08T14:27:38.270Z,29.72
2022-12-08T14:30:20.426Z,35.15
2022-12-08T14:33:00.478Z,53.45
2022-12-08T14:35:34.720Z,88.25
2022-12-08T14:38:15.909Z,72.97
2022-12-08T14:40:47.335Z,85.70
2022-12-08T14:43:20.626Z,64.77
2022-12-08T14:45:51.266Z,61.48
2022-12-08T14:48:36.633Z,46.55
2022-12-08T14:51:16.090Z,42.93
2022-12-08T14:54:02.703Z,52.93
2022-12-08T14:56:44.542Z,63.48
2022-12-08T14:59:37.136Z,72.12
2022-12-08T15:02:23.554Z,71.60
2022-12-08T15:05:05.301Z,66.22
2022-12-08T15:07:52.517Z,67.92
2022-12-08T15:10:28.104Z,53.33
2022-12-08T15:13:17.053Z,49.50
2022-12-08T15:15:57.305Z,37.78
2022-12-08T15:18:40.953Z,38.92
2022-12-08T15:21:12.397Z,46.30
2022-12-08T15:23:46.190Z,33.08
2022-12-08T15:26:21.618Z,25.37
2022-12-08T15:28:49.547Z,27.95
2022-12-08T15:31:18.537Z,23.07
2022-12-08T15:33:46.222Z,22.32
2022-12-08T15:36:13.911Z,24.52
2022-12-08T15:38:43.202Z,26.20
2022-12-08T15:41:14.992Z,42.70
2022-12-08T15:43:40.278Z,35.25
2022-12-08T15:46:07.943Z,32.13
2022-12-08T15:48:37.643Z,24.57
2022-12-08T15:51:05.541Z,31.20
2022-12-08T15:53:33.082Z,32.03
2022-12-08T15:58:54.616Z,58.42
2022-12-08T16:01:06.549Z,43.65
2022-12-08T16:04:19.786Z,47.62
2022-12-08T16:06:50.791Z,44.08
2022-12-08T16:08:56.290Z,49.90
2022-12-08T16:11:56.340Z,42.83
2022-12-08T16:14:14.906Z,36.90
2022-12-08T16:16:26.194Z,51.10
2022-12-08T16:18:54.059Z,49.23
2022-12-08T16:21:57.847Z,39.55
2022-12-08T16:23:51.044Z,46.50
2022-12-08T16:27:06.961Z,42.10
2022-12-08T16:28:54.361Z,36.88
2022-12-08T16:31:23.187Z,35.65
2022-12-08T16:33:50.417Z,43.42
2022-12-08T16:36:18.183Z,57.30
2022-12-08T16:38:45.766Z,69.55
2022-12-08T16:41:33.969Z,49.58
2022-12-08T16:44:05.844Z,45.55
2022-12-08T16:46:34.425Z,50.70
2022-12-08T16:49:01.964Z,63.58
2022-12-08T16:51:29.347Z,63.90
2022-12-08T16:53:57.775Z,51.33
2022-12-08T16:56:32.189Z,49.63
2022-12-08T16:58:55.517Z,49.35
2022-12-08T17:01:23.319Z,50.17
2022-12-08T17:04:14.420Z,47.85
2022-12-08T17:06:20.686Z,54.95
2022-12-08T17:08:48.250Z,54.23
2022-12-08T17:11:27.214Z,48.87
2022-12-08T17:13:54.608Z,43.00
2022-12-08T17:16:22.426Z,38.15
2022-12-08T17:18:50.512Z,43.13
2022-12-08T17:21:18.174Z,34.48
2022-12-08T17:23:46.648Z,33.73
2022-12-08T17:26:14.749Z,37.53
2022-12-08T17:28:59.971Z,39.00
2022-12-08T17:31:15.427Z,35.30
2022-12-08T17:33:43.631Z,35.52
2022-12-08T17:36:15.318Z,30.10
2022-12-08T17:38:43.827Z,32.58
2022-12-08T17:41:11.737Z,44.50
2022-12-08T17:43:39.372Z,42.83
2022-12-08T17:46:07.068Z,40.80
2022-12-08T17:48:35.232Z,41.90
2022-12-08T17:51:02.824Z,35.58
2022-12-08T17:53:34.282Z,36.23
2022-12-08T17:55:59.402Z,39.20
2022-12-08T17:58:27.161Z,46.63
2022-12-08T18:00:55.004Z,60.83
2022-12-08T18:03:22.516Z,63.50
2022-12-08T18:05:50.409Z,64.22
2022-12-08T18:08:17.851Z,63.00
2022-12-08T18:10:46.454Z,83.15
2022-12-08T18:13:13.955Z,110.45
2022-12-08T18:15:41.602Z,90.10
2022-12-08T18:18:09.049Z,65.65
2022-12-08T18:20:37.181Z,50.75
2022-12-08T18:23:04.948Z,45.20
2022-12-08T18:25:32.644Z,38.28
2022-12-08T18:28:00.271Z,37.20
2022-12-08T18:30:28.019Z,43.05
2022-12-08T18:32:57.429Z,42.80
2022-12-08T18:35:26.542Z,36.70
2022-12-08T18:37:54.529Z,40.45
2022-12-08T18:40:22.619Z,38.45
2022-12-08T18:42:50.383Z,40.58
2022-12-08T18:45:22.447Z,33.75
2022-12-08T18:47:51.353Z,34.75
2022-12-08T18:50:19.464Z,54.23
2022-12-08T18:52:47.159Z,70.78
2022-12-08T18:55:15.384Z,64.95
2022-12-08T18:57:43.580Z,65.87
2022-12-08T19:00:17.691Z,54.55
2022-12-08T19:02:45.946Z,76.70
2022-12-08T19:05:14.364Z,66.20
2022-12-08T19:07:42.380Z,50.83
2022-12-08T19:10:11.660Z,43.58
2022-12-08T19:12:39.249Z,67.27
2022-12-08T19:15:08.905Z,55.78
2022-12-08T19:17:36.320Z,32.83
2022-12-08T19:20:06.310Z,42.67
2022-12-08T19:22:34.350Z,45.45
2022-12-08T19:25:02.534Z,36.08
2022-12-08T19:27:30.200Z,41.40
2022-12-08T19:29:57.932Z,51.28
2022-12-08T19:32:26.230Z,46.60
2022-12-08T19:34:53.524Z,48.05
2022-12-08T19:37:21.262Z,38.35
2022-12-08T19:40:07.845Z,45.90
2022-12-08T19:42:54.360Z,38.38
2022-12-08T19:45:22.505Z,34.75
2022-12-08T19:47:50.366Z,37.28
2022-12-08T19:50:36.472Z,28.75
2022-12-08T19:53:11.521Z,28.35
2022-12-08T19:55:39.765Z,26.52
2022-12-08T19:58:09.424Z,25.17
2022-12-08T20:00:39.811Z,35.83
2022-12-08T20:03:07.936Z,29.55
2022-12-08T20:05:37.262Z,37.35
2022-12-08T20:08:05.675Z,35.63
2022-12-08T20:10:37.288Z,45.88
2022-12-08T20:13:24.326Z,36.88
2022-12-08T20:15:52.405Z,78.78
2022-12-08T20:18:20.356Z,51.05
2022-12-08T20:20:48.982Z,46.80
2022-12-08T20:23:17.482Z,18.20
2022-12-08T20:25:47.079Z,14.10
2022-12-08T20:28:14.701Z,12.37
2022-12-08T20:30:43.564Z,14.75
2022-12-08T20:33:13.275Z,26.33
2022-12-08T20:35:41.034Z,32.75
2022-12-08T20:38:09.528Z,35.58
2022-12-08T20:40:43.168Z,27.02
2022-12-08T20:45:38.205Z,19.82
2022-12-08T20:48:06.214Z,20.80
2022-12-08T20:50:33.858Z,21.05
2022-12-08T20:53:01.564Z,24.98
2022-12-08T20:55:29.345Z,17.90
2022-12-08T20:57:56.820Z,13.95
2022-12-08T21:00:27.362Z,14.38
2022-12-08T21:02:57.044Z,18.48
2022-12-08T21:05:24.931Z,19.50
2022-12-08T21:07:52.744Z,18.12
2022-12-08T21:10:20.509Z,20.37
2022-12-08T21:12:48.501Z,18.40
2022-12-08T21:15:16.243Z,17.02
2022-12-08T21:17:44.035Z,18.67
2022-12-08T21:20:12.094Z,18.17
2022-12-08T21:22:40.369Z,23.32
2022-12-08T21:25:09.228Z,21.07
2022-12-08T21:27:38.480Z,15.63
2022-12-08T21:30:08.372Z,18.32
2022-12-08T21:32:39.094Z,18.00
2022-12-08T21:35:08.696Z,20.75
2022-12-08T21:37:36.432Z,18.15
2022-12-08T21:40:06.493Z,24.87
2022-12-08T21:42:43.417Z,23.07
2022-12-08T21:45:18.148Z,28.15
2022-12-08T21:47:48.234Z,28.27
2022-12-08T21:50:16.790Z,30.50
2022-12-08T21:52:47.319Z,33.92
2022-12-08T21:55:18.392Z,31.97
2022-12-08T21:57:46.697Z,31.77
2022-12-08T22:00:17.311Z,29.52
2022-12-08T22:02:45.765Z,26.65
2022-12-08T22:05:13.676Z,26.05
2022-12-08T22:07:41.806Z,26.25
2022-12-08T22:10:11.367Z,28.42
2022-12-08T22:12:39.589Z,28.92
2022-12-08T22:15:10.593Z,23.98
2022-12-08T22:17:41.700Z,24.95
2022-12-08T22:20:13.683Z,22.75
2022-12-08T22:22:41.767Z,23.00
2022-12-08T22:25:11.385Z,18.00
2022-12-08T22:27:40.518Z,14.45
2022-12-08T22:30:10.429Z,22.50
2022-12-08T22:32:38.604Z,21.37
2022-12-08T22:35:07.540Z,20.23
2022-12-08T22:37:35.086Z,17.35
2022-12-08T22:40:03.488Z,14.30
2022-12-08T22:42:31.458Z,19.75
2022-12-08T22:44:59.428Z,15.83
2022-12-08T22:47:27.391Z,12.28
2022-12-08T22:49:55.185Z,9.98
2022-12-08T22:52:22.978Z,9.08
2022-12-08T22:54:50.404Z,10.48
2022-12-08T22:57:18.194Z,9.40
2022-12-08T22:59:46.045Z,9.73
2022-12-08T23:02:14.290Z,9.88
2022-12-08T23:04:42.369Z,8.98
2022-12-08T23:07:10.138Z,9.63
2022-12-08T23:09:38.048Z,10.18
2022-12-08T23:12:07.016Z,9.35
2022-12-08T23:14:35.044Z,10.00
2022-12-08T23:17:05.592Z,9.33
2022-12-08T23:19:36.466Z,12.13
2022-12-08T23:22:04.143Z,10.55
2022-12-08T23:24:31.825Z,12.43
2022-12-08T23:26:59.771Z,12.70
2022-12-08T23:29:27.771Z,10.68
2022-12-08T23:31:56.244Z,12.65
2022-12-08T23:34:24.190Z,11.12
2022-12-08T23:36:51.854Z,10.18
2022-12-08T23:39:21.570Z,10.35
2022-12-08T23:41:49.427Z,9.83
2022-12-08T23:44:17.302Z,10.00
2022-12-08T23:46:45.097Z,9.25
2022-12-08T23:49:12.969Z,8.60
2022-12-08T23:51:40.575Z,9.53
2022-12-08T23:54:08.387Z,9.55
2022-12-08T23:56:35.840Z,8.75
2022-12-08T23:59:03.662Z,8.65
